Time;durP1;ratioP1;P1;durP2;ratioP2;P2;SDS_P1;SDS_P2;PMS_P1;PMS_P2;Temp;Humidity;BMP_temperature;BMP_pressure;BME280_temperature;BME280_humidity;BME280_pressure;Samples;Min_cycle;Max_cycle;Signal;HPM_P1;HPM_P2
2021/12/02 00:00:11;;;;;;;970.42;910.75;;;;;;;7.15;54.07;98264.16;681947;28;45299;-67
2021/12/02 00:00:35;;;;;;;989.20;927.47;;;;;;;7.17;54.51;98290.78;679556;28;138296;-66
2021/12/02 00:00:57;;;;;;;977.20;917.70;;;;;;;7.15;55.00;98277.59;682865;28;24512;-66
2021/12/02 00:01:18;;;;;;;949.38;893.00;;;;;;;7.23;54.56;98284.56;681670;28;70251;-66
2021/12/02 00:01:40;;;;;;;944.05;888.38;;;;;;;7.27;54.58;98256.22;682321;28;46287;-66
2021/12/02 00:02:06;;;;;;;941.97;886.33;;;;;;;7.22;53.76;98278.38;682811;28;22394;-66
2021/12/02 00:02:27;;;;;;;896.88;844.83;;;;;;;7.22;54.01;98250.69;679533;28;139381;-66
2021/12/02 00:02:48;;;;;;;893.25;841.55;;;;;;;7.24;54.36;98277.31;682330;28;22385;-67
2021/12/02 00:03:10;;;;;;;885.53;834.47;;;;;;;7.26;53.81;98257.28;683079;28;22324;-66
2021/12/02 00:03:31;;;;;;;927.75;872.75;;;;;;;7.29;53.71;98232.69;682522;28;45973;-66
2021/12/02 00:03:54;;;;;;;946.88;888.83;;;;;;;7.32;53.18;98248.38;683402;28;22376;-66
2021/12/02 00:04:15;;;;;;;755.72;714.38;;;;;;;7.28;53.21;98267.81;681400;28;69272;-67
2021/12/02 00:04:38;;;;;;;733.55;693.88;;;;;;;7.24;53.17;98277.31;684419;28;22403;-66
2021/12/02 00:04:59;;;;;;;809.85;763.88;;;;;;;7.21;53.43;98271.34;682561;28;69380;-66
2021/12/02 00:05:24;;;;;;;861.95;812.00;;;;;;;7.30;53.81;98246.94;683864;28;21218;-66
2021/12/02 00:05:46;;;;;;;856.92;807.20;;;;;;;7.26;53.68;98262.66;680212;28;113297;-67
2021/12/02 00:06:09;;;;;;;824.55;777.33;;;;;;;7.27;53.59;98264.28;683409;28;45298;-66
2021/12/02 00:06:30;;;;;;;798.72;753.55;;;;;;;7.24;53.56;98248.63;683136;28;46337;-67
2021/12/02 00:06:51;;;;;;;814.60;768.17;;;;;;;7.22;53.99;98275.69;682128;28;46271;-66
2021/12/02 00:07:13;;;;;;;849.45;800.67;;;;;;;7.26;53.71;98249.22;683537;28;20460;-66
2021/12/02 00:07:34;;;;;;;860.97;811.67;;;;;;;7.24;53.85;98237.06;682471;28;46194;-66
2021/12/02 00:07:55;;;;;;;859.13;809.80;;;;;;;7.19;53.88;98276.13;681827;28;42236;-66
2021/12/02 00:08:18;;;;;;;883.38;832.45;;;;;;;7.20;54.16;98255.47;682574;28;46265;-66
2021/12/02 00:08:40;;;;;;;847.17;798.95;;;;;;;7.26;54.04;98248.38;682754;28;21521;-66
2021/12/02 00:09:02;;;;;;;834.53;787.10;;;;;;;7.22;53.78;98266.78;681459;28;69497;-66
2021/12/02 00:09:23;;;;;;;915.45;862.33;;;;;;;7.26;53.97;98267.19;682713;28;44385;-67
2021/12/02 00:09:45;;;;;;;928.80;874.97;;;;;;;7.27;54.22;98284.94;683525;28;1622;-67
2021/12/02 00:10:08;;;;;;;919.90;866.38;;;;;;;7.27;54.25;98279.56;682075;28;46458;-66
2021/12/02 00:10:31;;;;;;;931.85;877.08;;;;;;;7.24;54.08;98288.06;682053;28;45131;-66
2021/12/02 00:10:52;;;;;;;949.92;893.00;;;;;;;7.31;53.98;98278.13;681748;28;67483;-66
2021/12/02 00:11:14;;;;;;;900.97;848.65;;;;;;;7.30;53.95;98249.63;682797;28;45278;-66
2021/12/02 00:11:36;;;;;;;898.75;846.75;;;;;;;7.30;53.97;98249.63;683118;28;23276;-66
2021/12/02 00:11:57;;;;;;;881.50;830.75;;;;;;;7.28;53.85;98267.81;682420;28;46277;-66
2021/12/02 00:12:18;;;;;;;866.90;817.22;;;;;;;7.28;54.09;98267.81;683556;28;24338;-66
2021/12/02 00:12:39;;;;;;;874.10;823.80;;;;;;;7.27;53.92;98271.53;682363;28;45364;-66
2021/12/02 00:13:02;;;;;;;909.25;856.50;;;;;;;7.33;53.63;98263.41;682953;28;21602;-66
2021/12/02 00:13:25;;;;;;;936.65;882.15;;;;;;;7.30;53.54;98271.09;681922;28;70464;-66
2021/12/02 00:13:54;;;;;;;932.13;877.90;;;;;;;7.23;53.40;98257.72;680499;28;69396;-66
2021/12/02 00:14:22;;;;;;;963.00;906.75;;;;;;;7.20;53.90;98271.56;678332;28;161779;-66
2021/12/02 00:14:45;;;;;;;975.75;918.63;;;;;;;7.22;53.86;98283.75;678919;28;136004;-66
2021/12/02 00:15:12;;;;;;;985.67;927.50;;;;;;;7.29;54.03;98286.38;680487;28;91904;-66
2021/12/02 00:15:38;;;;;;;1029.20;967.47;;;;;;;7.25;53.65;98276.28;680908;28;137693;-67
2021/12/02 00:16:06;;;;;;;1034.20;972.15;;;;;;;7.33;53.20;98228.50;678276;28;135333;-66
2021/12/02 00:16:32;;;;;;;1044.75;981.63;;;;;;;7.38;52.99;98298.53;679029;28;137896;-66
2021/12/02 00:17:04;;;;;;;1043.50;980.35;;;;;;;7.41;53.14;98278.44;678856;28;137813;-66
2021/12/02 00:17:28;;;;;;;1061.22;992.88;;;;;;;7.42;53.04;98279.28;679081;28;137822;-66
2021/12/02 00:17:56;;;;;;;1061.55;993.22;;;;;;;7.34;53.24;98262.38;679655;28;93363;-66
2021/12/02 00:21:02;;;;;;;1061.30;993.35;;;;;;;7.35;53.40;98271.25;679862;28;137646;-66
2021/12/02 00:21:20;;;;;;;915.78;861.88;;;;;;;7.18;53.67;98276.34;673609;29;137230;-66
2021/12/02 00:21:45;;;;;;;870.92;820.67;;;;;;;7.16;53.79;98276.56;677942;28;69082;-66
2021/12/02 00:22:06;;;;;;;881.10;830.25;;;;;;;7.10;53.72;98266.69;680307;28;113641;-66
2021/12/02 00:22:29;;;;;;;890.58;839.15;;;;;;;7.11;53.93;98278.22;684471;28;1814;-66
2021/12/02 00:23:29;;;;;;;872.00;821.72;;;;;;;7.09;54.80;98291.88;681204;28;45245;-66
2021/12/02 00:23:51;;;;;;;878.90;827.90;;;;;;;7.14;55.01;98302.78;671899;29;138434;-66
2021/12/02 00:24:18;;;;;;;825.95;778.55;;;;;;;7.15;54.21;98274.91;675006;29;70042;-67
2021/12/02 00:24:41;;;;;;;896.80;844.70;;;;;;;7.17;53.79;98280.88;671335;29;137705;-66
2021/12/02 00:25:04;;;;;;;923.53;870.03;;;;;;;7.20;53.69;98293.84;680435;28;67486;-66
2021/12/02 00:25:25;;;;;;;915.15;862.22;;;;;;;7.24;53.23;98274.63;684444;28;16066;-66
2021/12/02 00:25:46;;;;;;;928.60;874.78;;;;;;;7.20;53.16;98287.69;683023;28;22484;-66
2021/12/02 00:26:10;;;;;;;924.38;870.85;;;;;;;7.18;53.60;98290.56;683111;28;22480;-66
2021/12/02 00:26:34;;;;;;;917.30;864.17;;;;;;;7.18;53.73;98273.66;681334;28;92166;-67
2021/12/02 00:26:58;;;;;;;937.83;883.35;;;;;;;7.21;53.58;98265.19;683647;28;15708;-66
2021/12/02 00:27:20;;;;;;;957.22;900.55;;;;;;;7.19;53.95;98280.66;681023;28;92087;-66
2021/12/02 00:27:44;;;;;;;928.72;874.47;;;;;;;7.13;53.48;98276.13;682727;28;45232;-66
2021/12/02 00:28:05;;;;;;;957.15;901.17;;;;;;;7.11;53.81;98283.59;683258;28;92091;-67
2021/12/02 00:28:28;;;;;;;924.97;871.33;;;;;;;7.12;53.93;98293.31;683816;28;8083;-66
2021/12/02 00:28:52;;;;;;;929.13;875.30;;;;;;;7.12;54.02;98280.69;682781;28;69486;-66
2021/12/02 00:29:16;;;;;;;939.30;884.60;;;;;;;7.11;53.76;98294.34;683224;28;92934;-66
2021/12/02 00:29:39;;;;;;;971.05;913.20;;;;;;;7.10;53.62;98279.25;680248;28;92020;-66
2021/12/02 00:30:02;;;;;;;982.42;923.15;;;;;;;7.10;53.95;98292.69;679758;29;69355;-66
2021/12/02 00:30:24;;;;;;;977.22;918.28;;;;;;;7.14;54.19;98289.34;682932;28;22769;-66
2021/12/02 00:30:45;;;;;;;951.28;894.80;;;;;;;7.12;53.93;98275.31;682217;29;995;-67
2021/12/02 00:31:11;;;;;;;931.65;877.17;;;;;;;7.08;54.47;98275.97;681569;29;23563;-67
2021/12/02 00:31:35;;;;;;;953.45;897.15;;;;;;;7.17;54.46;98325.69;679136;28;138675;-66
2021/12/02 00:32:01;;;;;;;961.45;904.85;;;;;;;7.15;53.78;98282.94;680558;28;115078;-66
2021/12/02 00:32:25;;;;;;;922.15;868.38;;;;;;;7.12;53.81;98293.31;680562;28;115173;-67
2021/12/02 00:32:47;;;;;;;888.97;837.80;;;;;;;7.12;54.03;98312.09;679940;28;93237;-67
2021/12/02 00:33:10;;;;;;;942.17;886.53;;;;;;;7.13;54.37;98287.72;682188;28;44390;-66
2021/12/02 00:33:32;;;;;;;891.70;840.15;;;;;;;7.11;54.50;98279.03;681594;28;69446;-66
2021/12/02 00:33:56;;;;;;;884.50;833.75;;;;;;;7.08;54.28;98314.38;682016;28;67260;-66
2021/12/02 00:34:17;;;;;;;891.17;839.97;;;;;;;7.14;54.27;98312.69;682917;28;67255;-66
2021/12/02 00:34:43;;;;;;;945.63;890.28;;;;;;;7.20;54.25;98299.22;682847;28;23262;-67
2021/12/02 00:35:05;;;;;;;982.55;923.88;;;;;;;7.20;53.92;98276.94;678639;28;160963;-66
2021/12/02 00:35:26;;;;;;;975.57;917.63;;;;;;;7.16;53.87;98286.44;684149;28;69444;-67
2021/12/02 00:35:49;;;;;;;930.28;876.22;;;;;;;7.13;54.06;98297.63;685959;28;41145;-66
2021/12/02 00:36:12;;;;;;;923.88;870.10;;;;;;;7.07;53.86;98291.25;686465;28;46536;-66
2021/12/02 00:36:36;;;;;;;938.83;883.95;;;;;;;7.06;54.27;98300.34;685721;28;69376;-67
2021/12/02 00:36:57;;;;;;;931.70;877.47;;;;;;;7.04;54.45;98286.31;684230;28;91169;-67
2021/12/02 00:37:19;;;;;;;932.20;877.90;;;;;;;7.03;54.73;98281.97;687189;28;22390;-66
2021/12/02 00:37:41;;;;;;;887.25;835.97;;;;;;;7.06;54.55;98297.66;682864;28;67644;-66
2021/12/02 00:38:02;;;;;;;849.70;801.10;;;;;;;7.06;54.55;98286.09;685798;28;24013;-66
2021/12/02 00:38:25;;;;;;;853.83;805.10;;;;;;;7.08;54.76;98290.22;686300;28;22390;-67
2021/12/02 00:38:46;;;;;;;933.97;879.22;;;;;;;7.13;54.80;98297.63;684105;28;67471;-66
2021/12/02 00:39:11;;;;;;;930.15;875.78;;;;;;;7.14;54.75;98300.09;685623;28;22194;-66
2021/12/02 00:39:35;;;;;;;889.05;837.95;;;;;;;7.17;54.66;98277.38;682682;28;115274;-67
2021/12/02 00:39:57;;;;;;;884.90;834.10;;;;;;;7.13;54.64;98279.66;683656;28;93273;-66
2021/12/02 00:40:19;;;;;;;932.55;878.22;;;;;;;7.11;54.70;98281.72;685205;28;46275;-66
2021/12/02 00:40:40;;;;;;;976.90;919.00;;;;;;;7.09;54.89;98283.00;684764;28;47161;-67
2021/12/02 00:41:02;;;;;;;975.97;918.50;;;;;;;7.06;54.89;98284.25;685609;28;22591;-67
2021/12/02 00:41:26;;;;;;;960.08;903.38;;;;;;;7.09;55.01;98285.69;685991;28;25737;-67
2021/12/02 00:41:48;;;;;;;976.42;916.75;;;;;;;7.08;55.27;98284.84;683254;28;92230;-66
2021/12/02 00:42:10;;;;;;;957.88;900.53;;;;;;;7.13;55.04;98271.63;685307;28;46381;-66
2021/12/02 00:42:35;;;;;;;953.50;897.20;;;;;;;7.10;54.77;98276.56;685408;28;43731;-67
2021/12/02 00:42:57;;;;;;;969.67;911.20;;;;;;;7.09;55.34;98269.56;681564;28;133820;-66
2021/12/02 00:43:18;;;;;;;954.90;898.30;;;;;;;7.09;55.25;98291.06;685632;28;46306;-66
2021/12/02 00:43:40;;;;;;;926.03;871.95;;;;;;;7.09;55.19;98278.44;685474;28;21545;-67
2021/12/02 00:44:02;;;;;;;907.00;854.03;;;;;;;7.10;55.15;98276.56;684837;28;45192;-66
2021/12/02 00:44:23;;;;;;;883.13;832.08;;;;;;;7.08;55.38;98290.22;685884;28;24358;-67
2021/12/02 00:44:46;;;;;;;868.67;818.88;;;;;;;7.06;54.82;98286.09;686565;28;946;-66
2021/12/02 00:45:07;;;;;;;884.58;833.65;;;;;;;7.04;54.87;98294.38;683963;28;69736;-67
2021/12/02 00:45:29;;;;;;;922.20;868.60;;;;;;;7.08;55.23;98335.84;686608;28;1502;-66
2021/12/02 00:45:50;;;;;;;941.75;886.47;;;;;;;7.15;55.14;98263.34;685166;28;45334;-66
2021/12/02 00:46:14;;;;;;;928.53;873.75;;;;;;;7.12;55.01;98296.00;683441;28;22537;-67
2021/12/02 00:46:36;;;;;;;906.50;853.55;;;;;;;7.15;55.32;98276.78;683891;28;90715;-66
2021/12/02 00:46:58;;;;;;;943.15;887.20;;;;;;;7.15;54.83;98285.63;684522;28;45330;-66
2021/12/02 00:47:19;;;;;;;909.03;856.28;;;;;;;7.13;54.58;98271.63;686531;28;22212;-67
2021/12/02 00:47:41;;;;;;;912.38;859.08;;;;;;;7.15;54.54;98295.56;683028;28;44385;-67
2021/12/02 00:48:04;;;;;;;953.50;896.75;;;;;;;7.18;54.77;98281.72;686147;28;930;-67
2021/12/02 00:48:25;;;;;;;972.42;914.90;;;;;;;7.16;54.46;98302.56;686411;28;1619;-67
2021/12/02 00:48:46;;;;;;;992.47;933.88;;;;;;;7.13;54.36;98309.19;685855;28;23522;-67
2021/12/02 00:49:12;;;;;;;1006.85;947.50;;;;;;;7.15;54.90;98314.34;684914;28;22306;-66
2021/12/02 00:49:33;;;;;;;1022.33;961.88;;;;;;;7.16;54.62;98306.09;682096;28;137405;-66
2021/12/02 00:49:54;;;;;;;1040.68;978.35;;;;;;;7.12;54.51;98288.75;685318;28;22395;-66
2021/12/02 00:50:15;;;;;;;1045.93;983.00;;;;;;;7.11;54.51;98303.19;685277;28;23780;-66
2021/12/02 00:50:38;;;;;;;1041.78;979.28;;;;;;;7.10;54.95;98309.63;685766;28;22481;-66
2021/12/02 00:51:02;;;;;;;1050.95;987.25;;;;;;;7.10;55.13;98301.56;684023;28;68334;-66
2021/12/02 00:51:26;;;;;;;1041.68;979.40;;;;;;;7.07;55.18;98301.16;686589;28;11368;-67
2021/12/02 00:51:51;;;;;;;1041.90;979.47;;;;;;;7.13;55.51;98306.50;682989;28;92288;-67
2021/12/02 00:52:13;;;;;;;1019.00;958.55;;;;;;;7.21;55.15;98294.69;681936;28;137837;-67
2021/12/02 00:52:36;;;;;;;1010.88;951.33;;;;;;;7.20;55.24;98291.19;685646;28;47380;-66
2021/12/02 00:52:58;;;;;;;1014.97;955.03;;;;;;;7.16;54.66;98284.59;682637;28;89132;-66
2021/12/02 00:53:20;;;;;;;1012.78;953.05;;;;;;;7.22;54.92;98301.69;686011;28;23337;-67
2021/12/02 00:53:44;;;;;;;937.40;883.00;;;;;;;7.15;54.59;98301.75;683672;28;69235;-66
2021/12/02 00:54:08;;;;;;;925.40;871.90;;;;;;;7.12;54.36;98299.50;683201;28;92295;-66
2021/12/02 00:54:30;;;;;;;914.38;861.78;;;;;;;7.09;54.27;98296.41;684634;28;69516;-67
2021/12/02 00:54:52;;;;;;;908.78;856.58;;;;;;;7.10;54.72;98312.31;686003;28;46411;-66
2021/12/02 00:55:13;;;;;;;924.05;870.78;;;;;;;7.06;54.64;98305.72;686039;28;46383;-66
2021/12/02 00:55:38;;;;;;;998.63;939.72;;;;;;;7.01;54.88;98300.16;687334;28;1334;-66
2021/12/02 00:56:02;;;;;;;971.60;914.83;;;;;;;7.06;54.84;98307.59;683686;28;92049;-66
2021/12/02 00:56:24;;;;;;;951.22;896.10;;;;;;;7.03;54.52;98298.91;684361;28;115261;-67
2021/12/02 00:56:47;;;;;;;949.70;894.65;;;;;;;6.99;54.41;98291.50;685463;28;46274;-66
2021/12/02 00:57:10;;;;;;;986.28;928.40;;;;;;;6.99;54.67;98350.53;684714;28;67503;-67
2021/12/02 00:57:32;;;;;;;970.83;914.17;;;;;;;7.04;55.05;98322.03;685087;28;70156;-67
2021/12/02 00:57:54;;;;;;;955.13;899.53;;;;;;;7.04;54.95;98323.91;683800;28;44678;-67
2021/12/02 00:58:19;;;;;;;959.42;903.45;;;;;;;7.06;54.64;98313.75;684487;28;46280;-67
2021/12/02 00:58:41;;;;;;;950.28;895.05;;;;;;;7.06;54.80;98310.25;683587;28;91000;-66
2021/12/02 00:59:02;;;;;;;986.00;928.38;;;;;;;7.07;54.75;98318.09;684647;28;46394;-66
2021/12/02 00:59:29;;;;;;;999.13;940.55;;;;;;;7.08;54.31;98333.16;685036;28;47415;-66
2021/12/02 00:59:50;;;;;;;1002.42;943.30;;;;;;;7.10;54.01;98287.31;681709;28;138794;-66
2021/12/02 01:00:12;;;;;;;1007.40;947.72;;;;;;;7.15;54.19;98322.41;684110;28;23085;-66
2021/12/02 01:00:33;;;;;;;1021.83;960.75;;;;;;;7.10;54.49;98306.94;683481;28;46316;-66
2021/12/02 01:00:55;;;;;;;1028.82;967.10;;;;;;;7.05;54.46;98322.84;683245;28;46341;-66
2021/12/02 01:01:18;;;;;;;1022.83;961.58;;;;;;;7.06;54.38;98313.75;684261;28;22198;-66
2021/12/02 01:01:39;;;;;;;1027.03;964.97;;;;;;;7.04;54.51;98340.81;681223;28;70369;-66
2021/12/02 01:02:00;;;;;;;1026.13;963.70;;;;;;;7.06;54.45;98321.00;683173;28;45264;-66
2021/12/02 01:02:33;;;;;;;976.95;916.30;;;;;;;7.08;54.53;98317.03;683279;28;98742;-66
2021/12/02 01:02:54;;;;;;;974.67;913.05;;;;;;;7.09;54.66;98316.03;683236;28;69464;-67
2021/12/02 01:03:16;;;;;;;981.25;921.15;;;;;;;7.07;54.48;98314.56;686284;28;21675;-66
2021/12/02 01:03:41;;;;;;;975.33;917.40;;;;;;;7.02;54.40;98324.09;685805;28;22386;-66
2021/12/02 01:04:06;;;;;;;984.15;925.45;;;;;;;6.99;54.57;98335.28;682048;28;114799;-66
2021/12/02 01:04:30;;;;;;;996.95;937.58;;;;;;;7.03;54.51;98325.75;682145;28;136185;-66
2021/12/02 01:04:52;;;;;;;1003.40;944.10;;;;;;;7.02;54.28;98350.09;683599;28;92981;-66
2021/12/02 01:05:13;;;;;;;1014.03;954.03;;;;;;;7.00;54.29;98320.78;685578;28;22442;-66
2021/12/02 01:05:35;;;;;;;1011.35;951.70;;;;;;;7.02;54.36;98332.16;686052;28;22393;-67
2021/12/02 01:05:56;;;;;;;1009.38;949.88;;;;;;;6.99;54.38;98396.16;684689;28;45261;-66
2021/12/02 01:06:18;;;;;;;985.10;927.42;;;;;;;7.07;54.41;98353.00;684706;28;46969;-66
2021/12/02 01:06:40;;;;;;;920.33;867.17;;;;;;;7.13;54.45;98338.72;684642;28;46282;-66
2021/12/02 01:07:03;;;;;;;914.13;861.35;;;;;;;7.12;54.22;98341.63;685212;28;44383;-66
2021/12/02 01:07:24;;;;;;;920.97;867.88;;;;;;;7.10;53.71;98349.03;685176;28;45192;-67
2021/12/02 01:07:45;;;;;;;963.03;906.67;;;;;;;7.06;54.22;98350.53;684491;28;23467;-67
2021/12/02 01:08:06;;;;;;;991.88;933.58;;;;;;;7.01;54.38;98333.19;686128;28;22403;-67
2021/12/02 01:08:28;;;;;;;976.93;919.93;;;;;;;7.04;54.39;98366.84;685265;28;44986;-66
2021/12/02 01:08:50;;;;;;;986.10;928.08;;;;;;;7.02;54.20;98350.09;685206;28;69384;-67
2021/12/02 01:09:12;;;;;;;984.50;926.00;;;;;;;7.00;54.33;98331.53;687584;28;1513;-66
2021/12/02 01:09:33;;;;;;;975.63;918.28;;;;;;;6.98;54.40;98338.97;686164;28;46408;-66
2021/12/02 01:09:55;;;;;;;982.80;925.13;;;;;;;6.98;54.17;98346.22;686431;28;22388;-66
2021/12/02 01:10:16;;;;;;;1006.38;946.97;;;;;;;6.99;54.28;98356.75;686044;28;46264;-66
2021/12/02 01:10:38;;;;;;;985.90;927.85;;;;;;;7.04;54.46;98350.75;685793;28;22412;-66
2021/12/02 01:10:59;;;;;;;976.75;919.50;;;;;;;7.02;54.74;98342.91;684801;28;46345;-66
2021/12/02 01:11:21;;;;;;;985.17;927.42;;;;;;;7.07;54.30;98354.84;686262;28;22369;-66
2021/12/02 01:11:43;;;;;;;988.92;930.90;;;;;;;7.10;54.08;98368.69;684794;28;44350;-66
2021/12/02 01:12:04;;;;;;;975.15;918.30;;;;;;;7.09;53.98;98342.84;684358;28;45301;-66
2021/12/02 01:12:25;;;;;;;988.67;930.88;;;;;;;7.06;53.95;98361.25;684990;28;45211;-66
2021/12/02 01:12:47;;;;;;;994.50;935.78;;;;;;;7.03;54.17;98338.34;684722;28;21446;-66
2021/12/02 01:13:09;;;;;;;1009.88;949.30;;;;;;;7.02;54.02;98379.63;685264;28;22601;-67
2021/12/02 01:13:30;;;;;;;1006.78;946.55;;;;;;;6.97;54.17;98363.34;684217;28;69402;-67
2021/12/02 01:13:52;;;;;;;1001.20;941.50;;;;;;;6.96;54.46;98348.28;685480;28;22374;-66
2021/12/02 01:14:14;;;;;;;964.15;907.13;;;;;;;6.98;54.84;98394.53;684946;28;44353;-66
2021/12/02 01:14:36;;;;;;;958.70;901.53;;;;;;;7.08;54.52;98351.94;685937;28;22227;-67
2021/12/02 01:14:57;;;;;;;968.05;909.80;;;;;;;7.11;54.24;98361.44;685931;28;44362;-66
2021/12/02 01:15:18;;;;;;;970.92;911.97;;;;;;;7.09;54.20;98355.47;685562;28;22396;-66
2021/12/02 01:15:39;;;;;;;974.50;916.15;;;;;;;7.08;54.22;98359.19;685602;28;21548;-66
2021/12/02 01:16:01;;;;;;;994.67;934.20;;;;;;;7.03;54.55;98370.53;685180;28;21498;-66
2021/12/02 01:16:23;;;;;;;1004.38;942.28;;;;;;;7.12;54.36;98392.63;683652;28;69439;-66
2021/12/02 01:16:44;;;;;;;1017.75;953.80;;;;;;;7.11;54.44;98361.44;685169;28;23381;-66
2021/12/02 01:17:06;;;;;;;1000.95;937.55;;;;;;;7.06;54.67;98380.03;685244;28;24109;-66
2021/12/02 01:17:27;;;;;;;979.53;916.83;;;;;;;6.98;54.71;98360.44;685830;28;46300;-66
2021/12/02 01:17:48;;;;;;;976.38;914.33;;;;;;;6.94;54.83;98375.31;684084;28;21530;-67
2021/12/02 01:18:09;;;;;;;970.30;909.38;;;;;;;6.91;54.92;98385.66;685616;28;22361;-66
2021/12/02 01:18:30;;;;;;;973.65;913.47;;;;;;;6.89;55.17;98377.81;685743;28;22377;-66
2021/12/02 01:18:52;;;;;;;985.30;924.45;;;;;;;6.87;55.33;98382.56;685586;28;22246;-66
2021/12/02 01:19:13;;;;;;;1004.70;941.50;;;;;;;6.82;55.12;98385.88;684285;28;69549;-66
2021/12/02 01:19:35;;;;;;;1016.05;952.05;;;;;;;6.84;55.32;98358.84;685986;28;23572;-66
2021/12/02 01:19:56;;;;;;;1036.45;970.17;;;;;;;6.87;55.43;98396.00;683973;28;21224;-66
2021/12/02 01:20:18;;;;;;;1036.28;970.45;;;;;;;6.83;55.56;98400.13;684353;28;23720;-66
2021/12/02 01:20:42;;;;;;;981.77;919.60;;;;;;;6.78;56.04;98398.06;682558;28;68526;-66
2021/12/02 01:21:04;;;;;;;982.05;917.85;;;;;;;6.80;55.79;98395.19;681583;28;92265;-66
2021/12/02 01:21:27;;;;;;;992.78;926.67;;;;;;;6.81;56.20;98429.84;683359;28;46581;-66
2021/12/02 01:21:50;;;;;;;974.95;910.00;;;;;;;6.81;56.04;98413.75;682841;28;67466;-66
2021/12/02 01:22:12;;;;;;;975.38;910.42;;;;;;;6.81;56.21;98403.00;684760;28;69759;-66
2021/12/02 01:22:36;;;;;;;991.85;926.33;;;;;;;6.78;56.51;98424.91;684784;28;45326;-66
2021/12/02 01:22:58;;;;;;;1016.47;951.30;;;;;;;6.74;56.97;98418.31;681771;28;112161;-66
2021/12/02 01:23:21;;;;;;;1027.97;962.97;;;;;;;6.73;57.12;98413.16;683216;28;46354;-66
2021/12/02 01:23:43;;;;;;;1045.70;980.47;;;;;;;6.71;57.31;98416.06;682302;28;69507;-66
2021/12/02 01:24:06;;;;;;;1051.85;986.05;;;;;;;6.66;57.96;98414.00;682188;28;44338;-66
2021/12/02 01:24:29;;;;;;;1058.13;991.70;;;;;;;6.67;57.71;98431.72;681548;28;92240;-66
2021/12/02 01:24:52;;;;;;;1057.53;989.47;;;;;;;6.70;57.87;98425.13;682821;28;46384;-66
2021/12/02 01:25:13;;;;;;;1058.88;991.55;;;;;;;6.68;58.52;98432.56;683113;28;69350;-66
2021/12/02 01:25:34;;;;;;;1059.25;993.08;;;;;;;6.62;58.58;98426.16;685677;28;21524;-66
2021/12/02 01:25:59;;;;;;;1057.57;991.92;;;;;;;6.60;58.91;98408.63;684848;28;44507;-67
2021/12/02 01:26:21;;;;;;;1048.85;984.03;;;;;;;6.56;58.77;98434.22;683805;28;92680;-66
2021/12/02 01:26:51;;;;;;;1040.20;975.55;;;;;;;6.53;59.07;98416.69;684636;28;44380;-66
2021/12/02 01:27:12;;;;;;;1037.78;974.20;;;;;;;6.52;59.39;98424.94;681469;28;137883;-67
2021/12/02 01:27:35;;;;;;;1028.25;966.08;;;;;;;6.47;59.74;98418.34;685682;28;23493;-67
2021/12/02 01:27:58;;;;;;;1035.50;972.40;;;;;;;6.44;59.78;98416.09;682443;28;88858;-67
2021/12/02 01:28:22;;;;;;;1041.97;977.85;;;;;;;6.45;59.65;98425.75;684664;28;69281;-67
2021/12/02 01:28:44;;;;;;;1024.40;960.30;;;;;;;6.43;60.24;98438.56;683415;28;90318;-67
2021/12/02 01:29:05;;;;;;;1012.70;948.67;;;;;;;6.40;60.18;98433.59;684825;28;45375;-66
2021/12/02 01:29:27;;;;;;;1022.75;958.08;;;;;;;6.39;60.40;98428.44;685551;28;22412;-66
2021/12/02 01:29:48;;;;;;;1040.47;975.17;;;;;;;6.41;60.46;98427.22;684809;28;45235;-66
2021/12/02 01:30:10;;;;;;;1050.10;984.75;;;;;;;6.40;60.01;98427.44;684737;28;46298;-66
2021/12/02 01:30:32;;;;;;;1028.32;963.58;;;;;;;6.32;60.77;98423.91;685789;28;24492;-66
2021/12/02 01:30:54;;;;;;;1019.75;954.40;;;;;;;6.26;61.11;98431.97;684739;28;44052;-67
2021/12/02 01:31:16;;;;;;;1039.70;973.20;;;;;;;6.22;61.05;98425.34;684448;28;69442;-66
2021/12/02 01:31:37;;;;;;;1048.28;981.53;;;;;;;6.21;61.07;98447.84;685545;28;22220;-67
2021/12/02 01:32:04;;;;;;;1051.05;983.50;;;;;;;6.23;60.95;98432.38;685649;28;21532;-66
2021/12/02 01:32:26;;;;;;;1051.50;984.38;;;;;;;6.28;60.67;98436.06;682335;28;137877;-66
2021/12/02 01:32:48;;;;;;;1027.75;963.10;;;;;;;6.24;61.24;98436.72;684307;28;46331;-66
2021/12/02 01:33:09;;;;;;;977.67;914.53;;;;;;;6.18;61.43;98445.56;687664;28;43324;-66
2021/12/02 01:33:31;;;;;;;971.72;907.85;;;;;;;6.13;61.61;98473.81;689405;28;22393;-66
2021/12/02 01:33:52;;;;;;;979.47;915.75;;;;;;;6.13;61.52;98433.59;687884;28;44461;-67
2021/12/02 01:34:13;;;;;;;982.95;919.30;;;;;;;6.09;61.66;98432.34;689490;28;23272;-67
2021/12/02 01:34:35;;;;;;;991.67;927.72;;;;;;;6.05;61.70;98438.31;689448;28;23307;-67
2021/12/02 01:34:57;;;;;;;982.47;918.17;;;;;;;6.01;62.25;98440.59;687019;28;69564;-67
2021/12/02 01:35:19;;;;;;;980.28;916.28;;;;;;;5.98;62.12;98456.25;685798;28;23475;-66
2021/12/02 01:35:41;;;;;;;998.38;932.25;;;;;;;5.96;62.28;98432.31;684482;28;47787;-67
2021/12/02 01:36:04;;;;;;;1011.63;943.00;;;;;;;5.96;62.33;98437.69;684766;28;44180;-66
2021/12/02 01:36:32;;;;;;;1025.25;956.20;;;;;;;5.93;62.32;98438.09;683722;28;69379;-66
2021/12/02 01:36:54;;;;;;;1034.40;966.60;;;;;;;5.93;62.84;98446.13;681737;28;136223;-66
2021/12/02 01:37:16;;;;;;;987.17;920.47;;;;;;;5.92;62.94;98455.19;683193;28;46317;-66
2021/12/02 01:37:38;;;;;;;979.45;912.35;;;;;;;5.90;62.93;98457.25;681271;28;46151;-66
2021/12/02 01:37:59;;;;;;;990.97;922.63;;;;;;;5.89;62.88;98463.63;682085;28;46339;-67
2021/12/02 01:38:22;;;;;;;999.05;930.42;;;;;;;5.90;62.89;98460.72;683084;28;22410;-67
2021/12/02 01:38:44;;;;;;;1010.30;941.28;;;;;;;5.95;62.76;98444.88;681334;28;67471;-66
2021/12/02 01:39:07;;;;;;;1028.97;959.05;;;;;;;5.95;62.57;98441.38;682024;28;46214;-66
2021/12/02 01:39:28;;;;;;;1045.68;976.88;;;;;;;5.91;62.83;98446.31;681751;28;70271;-66
2021/12/02 01:39:49;;;;;;;1054.60;984.45;;;;;;;5.92;62.96;98426.56;682562;28;21540;-66
2021/12/02 01:40:12;;;;;;;1057.35;986.28;;;;;;;6.00;62.37;98430.06;682873;28;22378;-66
2021/12/02 01:40:33;;;;;;;1020.05;950.40;;;;;;;5.95;62.54;98452.09;681648;28;69580;-67
2021/12/02 01:40:55;;;;;;;1007.15;938.10;;;;;;;5.91;62.78;98418.72;683428;28;21314;-66
2021/12/02 01:41:16;;;;;;;1019.88;950.40;;;;;;;5.90;62.85;98423.22;683426;28;12552;-66
2021/12/02 01:41:45;;;;;;;1011.20;942.10;;;;;;;5.88;62.74;98403.03;682761;28;23416;-66
2021/12/02 01:42:08;;;;;;;995.65;929.08;;;;;;;5.87;63.03;98426.31;678599;28;137736;-66
2021/12/02 01:42:31;;;;;;;1035.60;970.58;;;;;;;5.82;63.01;98414.56;681358;28;67430;-67
2021/12/02 01:42:53;;;;;;;1049.60;984.17;;;;;;;5.79;63.21;98431.88;680792;28;69457;-66
2021/12/02 01:43:16;;;;;;;1059.90;992.45;;;;;;;5.78;63.57;98424.84;682074;28;46265;-67
2021/12/02 01:43:45;;;;;;;1063.82;996.58;;;;;;;5.77;63.29;98436.63;680899;28;69261;-66
2021/12/02 01:44:10;;;;;;;1065.50;997.67;;;;;;;5.75;63.51;98454.72;679389;28;137924;-66
2021/12/02 01:44:31;;;;;;;1062.20;995.65;;;;;;;5.74;63.37;98443.19;680065;28;115104;-66
2021/12/02 01:44:54;;;;;;;1043.78;981.15;;;;;;;5.73;63.85;98430.81;687867;28;22933;-66
2021/12/02 01:45:16;;;;;;;1015.70;955.85;;;;;;;5.82;63.46;98441.38;686764;28;68445;-66
2021/12/02 01:45:40;;;;;;;1021.05;960.78;;;;;;;5.73;63.30;98436.16;687002;28;46161;-66
2021/12/02 01:46:02;;;;;;;1029.78;968.90;;;;;;;5.72;63.56;98453.28;685888;28;91996;-66
2021/12/02 01:46:26;;;;;;;1032.55;971.30;;;;;;;5.70;63.63;98446.47;687897;28;46312;-67
2021/12/02 01:46:52;;;;;;;1047.05;983.28;;;;;;;5.66;63.77;98453.25;684865;28;60247;-67